This is the latest recevied weather packets stored in our database for station/object ZR6G-15. If no packets are shown the sender has not sent any weather packets the latest 10 day(s).
| Time | Temp. | Humidity | Pressure | Rain* | Wind** | Luminosity | Snow |
|---|---|---|---|---|---|---|---|
| 1777923422 | 15.56° C | 42% | 1013.6 hPa | - | - | - | - |
| 1777922821 | 15.56° C | 42% | 1013.5 hPa | - | - | - | - |
| 1777922212 | 15.56° C | 43% | 1013.3 hPa | - | - | - | - |
| 1777921608 | 15.56° C | 43% | 1013.4 hPa | - | - | - | - |
| 1777921003 | 15.56° C | 42% | 1013.2 hPa | - | - | - | - |
| 1777920398 | 15.56° C | 42% | 1013.4 hPa | - | - | - | - |
| 1777919794 | 15.56° C | 44% | 1013.5 hPa | - | - | - | - |
| 1777919189 | 15° C | 45% | 1013.6 hPa | - | - | - | - |
| 1777918585 | 15.56° C | 43% | 1013.4 hPa | - | - | - | - |
| 1777917980 | 15.56° C | 43% | 1013.4 hPa | - | - | - | - |
| 1777917376 | 15.56° C | 42% | 1013.2 hPa | - | - | - | - |
| 1777916771 | 15.56° C | 42% | 1013 hPa | - | - | - | - |
| 1777916167 | 16.67° C | 42% | 1012.8 hPa | - | - | - | - |
| 1777915563 | 16.67° C | 41% | 1012.7 hPa | - | - | - | - |
| 1777914957 | 16.67° C | 40% | 1012.6 hPa | - | - | - | - |
| 1777914353 | 16.67° C | 40% | 1012.4 hPa | - | - | - | - |
| 1777913748 | 16.67° C | 39% | 1012.3 hPa | - | - | - | - |
| 1777913143 | 17.78° C | 38% | 1012.2 hPa | - | - | - | - |
| 1777912539 | 17.78° C | 37% | 1012 hPa | - | - | - | - |
| 1777911934 | 18.89° C | 35% | 1011.8 hPa | - | - | - | - |
| 1777911329 | 18.89° C | 32% | 1011.4 hPa | - | - | - | - |
| 1777910724 | 18.89° C | 31% | 1011.1 hPa | - | - | - | - |
| 1777910119 | 20° C | 28% | 1011 hPa | - | - | - | - |
| 1777909514 | 20° C | 27% | 1010.9 hPa | - | - | - | - |
| 1777908909 | 20° C | 25% | 1010.7 hPa | - | - | - | - |
* Rain since midnight (hover to see other rain measurements)
** Current wind speed in m/s (hover to see current wind gust speed)